Time;durP1;ratioP1;P1;durP2;ratioP2;P2;SDS_P1;SDS_P2;PMS_P1;PMS_P2;Temp;Humidity;BMP_temperature;BMP_pressure;BME280_temperature;BME280_humidity;BME280_pressure;Samples;Min_cycle;Max_cycle;Signal;HPM_P1;HPM_P2
2021/04/08 04:55:54;;;;;;;8.10;3.30;;;;;;;;;;5082363;28;20409;-78
2021/04/08 04:58:19;;;;;;;8.27;2.85;;;;;;;;;;5072338;28;20025;-78
2021/04/08 05:00:45;;;;;;;6.88;3.50;;;;;;;;;;5043714;23;20543;-81
2021/04/08 05:03:11;;;;;;;6.88;2.70;;;;;;;;;;5031773;28;20483;-81
2021/04/08 05:05:36;;;;;;;5.22;2.78;;;;;;;;;;5030705;28;20093;-79
2021/04/08 05:08:02;;;;;;;5.65;2.53;;;;;;;;;;5017065;28;20028;-79
2021/04/08 05:10:28;;;;;;;6.75;3.38;;;;;;;;;;5011982;28;20427;-79
2021/04/08 05:12:53;;;;;;;5.53;2.47;;;;;;;;;;5015138;28;20044;-79
2021/04/08 05:15:19;;;;;;;5.60;3.00;;;;;;;;;;5014495;28;20048;-78
2021/04/08 05:20:05;;;;;;;5.35;2.97;;;;;;;;;;5081901;27;20348;-79
2021/04/08 05:22:30;;;;;;;6.13;2.95;;;;;;;;;;5063316;28;20416;-78
2021/04/08 05:24:56;;;;;;;6.95;2.88;;;;;;;;;;5040197;28;20124;-79
2021/04/08 05:27:22;;;;;;;5.82;3.05;;;;;;;;;;5047129;28;20068;-79
2021/04/08 05:29:47;;;;;;;7.85;3.38;;;;;;;;;;5060549;28;20112;-79
2021/04/08 05:32:13;;;;;;;7.28;3.50;;;;;;;;;;5059410;28;20096;-79
2021/04/08 05:34:39;;;;;;;9.52;3.50;;;;;;;;;;5047322;28;20032;-79
2021/04/08 05:37:04;;;;;;;9.60;4.07;;;;;;;;;;5062027;28;20035;-79
2021/04/08 05:39:30;;;;;;;5.65;3.38;;;;;;;;;;5065996;28;20488;-79
2021/04/08 05:41:56;;;;;;;7.05;3.47;;;;;;;;;;5062240;28;20021;-79
2021/04/08 05:44:22;;;;;;;7.90;3.55;;;;;;;;;;5065960;28;20024;-79
2021/04/08 05:46:47;;;;;;;9.38;3.63;;;;;;;;;;5066619;28;20096;-79
2021/04/08 05:49:13;;;;;;;6.88;3.53;;;;;;;;;;5063793;28;20100;-79
2021/04/08 05:51:39;;;;;;;7.47;4.35;;;;;;;;;;5068388;28;20055;-79
2021/04/08 05:54:07;;;;;;;8.45;4.35;;;;;;;;;;5062772;28;20080;-79
2021/04/08 05:56:32;;;;;;;7.90;4.20;;;;;;;;;;5063553;28;20028;-79
2021/04/08 05:58:58;;;;;;;7.53;4.35;;;;;;;;;;5066140;28;20031;-79
2021/04/08 06:01:24;;;;;;;5.88;3.50;;;;;;;;;;5065449;28;20080;-79
2021/04/08 06:03:49;;;;;;;10.52;4.38;;;;;;;;;;5063332;28;20074;-78
2021/04/08 06:06:15;;;;;;;7.60;4.35;;;;;;;;;;5065089;28;20096;-78
2021/04/08 06:08:40;;;;;;;13.18;4.57;;;;;;;;;;5068889;28;20087;-78
2021/04/08 06:11:06;;;;;;;8.15;4.22;;;;;;;;;;5071366;28;20104;-77
2021/04/08 06:13:32;;;;;;;10.30;4.57;;;;;;;;;;5071880;28;20035;-79
2021/04/08 06:15:57;;;;;;;12.38;4.65;;;;;;;;;;5070319;28;20033;-79
2021/04/08 06:18:23;;;;;;;11.35;4.35;;;;;;;;;;5067255;28;20088;-79
2021/04/08 06:20:49;;;;;;;8.57;4.55;;;;;;;;;;5063288;28;20088;-79
2021/04/08 06:23:15;;;;;;;8.15;4.22;;;;;;;;;;5052345;28;20105;-79
2021/04/08 06:25:40;;;;;;;10.02;5.30;;;;;;;;;;5064101;28;20104;-79
2021/04/08 06:28:06;;;;;;;11.93;6.20;;;;;;;;;;5067005;28;20101;-78
2021/04/08 06:30:32;;;;;;;12.25;5.70;;;;;;;;;;5058694;28;20024;-78
2021/04/08 06:32:57;;;;;;;11.65;6.10;;;;;;;;;;5050216;28;20503;-78
2021/04/08 06:35:23;;;;;;;12.30;6.03;;;;;;;;;;5048776;28;20393;-79
2021/04/08 06:37:51;;;;;;;7.97;5.35;;;;;;;;;;5047905;28;20021;-80
2021/04/08 06:40:17;;;;;;;9.43;5.22;;;;;;;;;;5044319;28;20031;-80
2021/04/08 06:42:42;;;;;;;8.90;5.15;;;;;;;;;;5046661;28;20099;-79
2021/04/08 06:45:08;;;;;;;12.82;5.40;;;;;;;;;;5045727;28;20029;-79
2021/04/08 06:47:40;;;;;;;11.60;5.13;;;;;;;;;;5027797;28;20037;-80
2021/04/08 06:50:07;;;;;;;9.52;5.50;;;;;;;;;;5045939;28;20052;-80
2021/04/08 06:52:33;;;;;;;9.48;6.07;;;;;;;;;;5027854;28;20029;-79
2021/04/08 06:54:59;;;;;;;13.90;5.20;;;;;;;;;;5029063;28;20028;-79
2021/04/08 06:57:25;;;;;;;12.90;5.70;;;;;;;;;;5029131;28;20074;-79
2021/04/08 06:59:51;;;;;;;7.47;4.40;;;;;;;;;;5045223;28;20024;-79
2021/04/08 07:02:21;;;;;;;6.32;4.13;;;;;;;;;;5045724;28;20033;-79
2021/04/08 07:04:47;;;;;;;7.50;4.50;;;;;;;;;;5043564;28;20013;-79
2021/04/08 07:07:17;;;;;;;9.63;4.95;;;;;;;;;;5045386;28;20025;-79
2021/04/08 07:09:43;;;;;;;11.40;4.82;;;;;;;;;;5045021;28;20063;-80
2021/04/08 07:12:09;;;;;;;9.15;4.60;;;;;;;;;;5046662;28;20033;-80
2021/04/08 07:14:35;;;;;;;12.98;5.30;;;;;;;;;;5042959;28;20112;-80
2021/04/08 07:17:01;;;;;;;9.38;5.40;;;;;;;;;;5035968;28;20059;-80
2021/04/08 07:19:28;;;;;;;16.60;7.70;;;;;;;;;;5043894;28;20028;-79
2021/04/08 07:21:55;;;;;;;14.10;7.63;;;;;;;;;;5046134;28;20060;-79
2021/04/08 07:24:23;;;;;;;14.52;7.95;;;;;;;;;;5029207;28;20021;-80
2021/04/08 07:26:55;;;;;;;12.40;6.30;;;;;;;;;;5044518;28;20021;-79
2021/04/08 07:29:21;;;;;;;16.83;8.00;;;;;;;;;;5041619;28;20529;-79
2021/04/08 07:31:47;;;;;;;12.75;7.18;;;;;;;;;;5041473;28;20033;-80
2021/04/08 07:34:31;;;;;;;14.43;7.10;;;;;;;;;;5029353;28;20033;-80
2021/04/08 07:36:56;;;;;;;11.75;5.95;;;;;;;;;;5032234;28;20549;-79
2021/04/08 07:39:22;;;;;;;9.63;5.90;;;;;;;;;;5048937;28;20024;-79
2021/04/08 07:42:02;;;;;;;12.13;5.88;;;;;;;;;;5039873;28;20409;-79
2021/04/08 07:44:27;;;;;;;15.43;6.72;;;;;;;;;;5023841;28;20437;-79
2021/04/08 07:46:54;;;;;;;11.10;6.32;;;;;;;;;;5046030;28;20025;-79
2021/04/08 07:49:26;;;;;;;10.05;5.38;;;;;;;;;;5040582;28;20096;-79
2021/04/08 07:51:52;;;;;;;18.33;6.45;;;;;;;;;;5046964;28;20033;-79
2021/04/08 07:54:19;;;;;;;9.73;4.47;;;;;;;;;;5040543;28;20497;-80
2021/04/08 07:56:45;;;;;;;10.82;4.93;;;;;;;;;;5049760;28;20047;-81
2021/04/08 07:59:27;;;;;;;7.07;4.68;;;;;;;;;;5048113;28;20021;-81
2021/04/08 08:02:02;;;;;;;8.05;4.90;;;;;;;;;;5047323;28;20021;-81
2021/04/08 08:04:29;;;;;;;9.57;3.70;;;;;;;;;;5047930;28;20035;-81
2021/04/08 08:06:55;;;;;;;8.43;4.20;;;;;;;;;;5030338;28;20032;-81
2021/04/08 08:09:22;;;;;;;6.95;4.10;;;;;;;;;;5045537;28;20029;-81
2021/04/08 08:11:49;;;;;;;12.02;4.60;;;;;;;;;;5050520;28;20485;-81
2021/04/08 08:14:15;;;;;;;17.15;5.47;;;;;;;;;;5048591;28;20017;-81
2021/04/08 08:16:41;;;;;;;9.27;4.78;;;;;;;;;;5025277;28;20024;-81
2021/04/08 08:19:07;;;;;;;9.70;4.75;;;;;;;;;;5043938;28;20027;-81
2021/04/08 08:21:35;;;;;;;12.35;5.03;;;;;;;;;;5048269;28;20025;-81
2021/04/08 08:24:05;;;;;;;7.18;3.75;;;;;;;;;;5053549;28;20025;-81
2021/04/08 08:26:30;;;;;;;11.20;4.07;;;;;;;;;;5046717;28;20377;-81
2021/04/08 08:29:16;;;;;;;13.15;5.28;;;;;;;;;;5052037;28;20022;-82
2021/04/08 08:31:45;;;;;;;9.50;3.95;;;;;;;;;;5051002;28;20087;-82
2021/04/08 08:34:14;;;;;;;7.05;3.45;;;;;;;;;;5047861;28;20175;-82
2021/04/08 08:36:41;;;;;;;12.95;4.35;;;;;;;;;;5054313;28;20025;-83
2021/04/08 08:39:08;;;;;;;10.88;4.22;;;;;;;;;;5053641;28;20021;-82
2021/04/08 08:41:38;;;;;;;15.27;5.35;;;;;;;;;;5051720;28;20044;-83
2021/04/08 08:44:04;;;;;;;8.65;4.25;;;;;;;;;;5048549;28;20067;-83
2021/04/08 08:46:31;;;;;;;7.88;3.72;;;;;;;;;;5032260;28;20021;-84
2021/04/08 08:48:58;;;;;;;10.43;3.45;;;;;;;;;;5028880;28;20037;-83
2021/04/08 08:51:25;;;;;;;8.23;3.47;;;;;;;;;;5050318;28;20037;-83
2021/04/08 08:53:54;;;;;;;12.65;3.60;;;;;;;;;;5032557;28;20022;-83
2021/04/08 08:56:22;;;;;;;17.63;3.95;;;;;;;;;;5046482;28;20025;-83
2021/04/08 08:58:48;;;;;;;10.70;4.15;;;;;;;;;;5046059;28;20028;-84
2021/04/08 09:01:14;;;;;;;6.53;3.08;;;;;;;;;;5031623;28;20030;-83
2021/04/08 09:03:40;;;;;;;9.90;3.25;;;;;;;;;;5047555;28;20020;-83
2021/04/08 09:06:06;;;;;;;6.43;3.38;;;;;;;;;;5052673;28;20095;-84
2021/04/08 09:08:33;;;;;;;8.02;3.30;;;;;;;;;;5045853;28;20408;-83
2021/04/08 09:10:59;;;;;;;11.13;4.45;;;;;;;;;;5045738;28;20265;-82
2021/04/08 09:13:25;;;;;;;4.95;2.38;;;;;;;;;;5044162;28;20370;-83
2021/04/08 09:15:51;;;;;;;6.60;2.10;;;;;;;;;;5051856;28;20028;-83
2021/04/08 09:18:23;;;;;;;5.22;2.03;;;;;;;;;;5035006;28;20065;-83
2021/04/08 09:20:52;;;;;;;5.10;2.83;;;;;;;;;;5025919;28;20052;-83
2021/04/08 09:23:20;;;;;;;6.03;2.75;;;;;;;;;;5030474;28;20059;-83
2021/04/08 09:25:50;;;;;;;5.90;2.25;;;;;;;;;;5046066;28;20028;-83
2021/04/08 09:28:16;;;;;;;7.60;2.53;;;;;;;;;;5048412;28;20017;-84
2021/04/08 09:33:13;;;;;;;7.35;3.25;;;;;;;;;;5045297;28;20033;-83
2021/04/08 09:35:39;;;;;;;6.22;2.97;;;;;;;;;;5046829;28;20024;-83
2021/04/08 09:38:04;;;;;;;5.28;2.97;;;;;;;;;;5050032;28;20029;-83
2021/04/08 09:40:33;;;;;;;12.27;3.75;;;;;;;;;;5046424;28;20029;-83
2021/04/08 09:43:01;;;;;;;5.45;3.00;;;;;;;;;;5045868;28;20064;-83
2021/04/08 09:45:27;;;;;;;6.93;3.38;;;;;;;;;;5050452;28;20083;-84
2021/04/08 09:48:20;;;;;;;7.35;3.10;;;;;;;;;;5024782;28;20018;-82
2021/04/08 09:50:55;;;;;;;7.95;3.25;;;;;;;;;;5039078;28;20106;-84
2021/04/08 09:53:22;;;;;;;13.70;4.78;;;;;;;;;;5034667;28;20505;-85
2021/04/08 09:55:56;;;;;;;7.63;3.47;;;;;;;;;;5035281;28;20037;-84
2021/04/08 09:58:24;;;;;;;10.60;4.25;;;;;;;;;;5037048;28;20031;-83
2021/04/08 10:00:51;;;;;;;5.45;2.92;;;;;;;;;;5043928;28;20029;-84
2021/04/08 10:03:27;;;;;;;6.15;2.67;;;;;;;;;;5047434;28;20484;-84
2021/04/08 10:05:52;;;;;;;7.32;2.88;;;;;;;;;;5058619;28;20043;-84
2021/04/08 10:08:20;;;;;;;9.75;2.85;;;;;;;;;;5053979;28;20127;-83
2021/04/08 10:10:47;;;;;;;7.55;2.80;;;;;;;;;;5037751;28;20033;-84
2021/04/08 10:13:17;;;;;;;10.80;3.60;;;;;;;;;;5030924;28;20027;-84
2021/04/08 10:15:43;;;;;;;6.63;2.95;;;;;;;;;;5049696;28;20075;-84
2021/04/08 10:18:18;;;;;;;18.95;8.00;;;;;;;;;;5054577;28;20032;-84
2021/04/08 10:20:45;;;;;;;7.60;2.95;;;;;;;;;;5057073;28;20017;-84
2021/04/08 10:23:11;;;;;;;6.72;2.80;;;;;;;;;;5056551;28;20033;-84
2021/04/08 10:25:37;;;;;;;6.03;3.35;;;;;;;;;;5057516;28;20026;-84
2021/04/08 10:28:03;;;;;;;6.90;3.33;;;;;;;;;;5053193;28;20025;-84
2021/04/08 10:30:34;;;;;;;5.72;3.15;;;;;;;;;;5050094;28;20112;-83
2021/04/08 10:32:59;;;;;;;6.70;3.20;;;;;;;;;;5059167;28;20051;-84
2021/04/08 10:35:27;;;;;;;8.52;2.55;;;;;;;;;;5051768;28;20135;-84
2021/04/08 10:37:58;;;;;;;6.47;3.45;;;;;;;;;;5049968;28;20137;-84
2021/04/08 10:40:24;;;;;;;6.57;3.53;;;;;;;;;;5056210;28;20026;-84
2021/04/08 10:42:50;;;;;;;5.72;3.38;;;;;;;;;;5050543;28;20105;-84
2021/04/08 10:45:16;;;;;;;6.00;2.53;;;;;;;;;;5040970;28;20025;-84
2021/04/08 10:47:42;;;;;;;8.52;3.03;;;;;;;;;;5050928;28;20035;-84
2021/04/08 10:50:08;;;;;;;7.90;3.30;;;;;;;;;;5051216;28;20060;-83
2021/04/08 10:52:35;;;;;;;8.00;3.53;;;;;;;;;;5047532;28;20029;-83
2021/04/08 10:55:02;;;;;;;7.65;3.10;;;;;;;;;;5035815;28;20031;-84
2021/04/08 10:57:29;;;;;;;6.68;3.20;;;;;;;;;;5054346;28;20090;-83
2021/04/08 10:59:55;;;;;;;5.18;3.05;;;;;;;;;;5074672;22;20056;-81
2021/04/08 11:02:31;;;;;;;7.90;4.03;;;;;;;;;;5051676;28;20500;-82
2021/04/08 11:04:58;;;;;;;7.90;3.20;;;;;;;;;;5049871;28;20024;-81
2021/04/08 11:07:25;;;;;;;7.75;3.30;;;;;;;;;;5049077;28;20112;-82
2021/04/08 11:09:51;;;;;;;5.13;3.05;;;;;;;;;;5058715;28;20020;-82
2021/04/08 11:12:21;;;;;;;8.52;3.85;;;;;;;;;;5066222;28;20474;-82
2021/04/08 11:14:48;;;;;;;6.07;3.45;;;;;;;;;;5070509;28;20686;-82
2021/04/08 11:17:14;;;;;;;5.28;3.33;;;;;;;;;;5069904;28;20063;-82
2021/04/08 11:19:41;;;;;;;7.32;3.67;;;;;;;;;;5070989;28;20515;-82
2021/04/08 11:22:09;;;;;;;10.75;4.65;;;;;;;;;;5071722;28;20455;-82
2021/04/08 11:24:35;;;;;;;8.93;3.35;;;;;;;;;;5074867;28;20019;-83
2021/04/08 11:27:01;;;;;;;5.80;3.15;;;;;;;;;;5066732;28;20028;-82
2021/04/08 11:29:27;;;;;;;6.57;3.72;;;;;;;;;;5071885;28;20020;-80
2021/04/08 11:32:00;;;;;;;8.30;3.60;;;;;;;;;;5070677;28;20078;-82
2021/04/08 11:34:26;;;;;;;6.00;3.05;;;;;;;;;;5071230;28;20094;-81
2021/04/08 11:36:55;;;;;;;6.80;4.35;;;;;;;;;;5072598;28;20021;-82
2021/04/08 11:39:20;;;;;;;7.75;3.83;;;;;;;;;;5072950;28;20411;-78
2021/04/08 11:41:46;;;;;;;5.45;3.17;;;;;;;;;;5075038;28;20474;-79
2021/04/08 11:44:23;;;;;;;9.20;5.18;;;;;;;;;;5075185;28;20036;-82
2021/04/08 11:46:49;;;;;;;7.82;3.95;;;;;;;;;;5072164;28;20089;-80
2021/04/08 11:49:19;;;;;;;8.70;3.60;;;;;;;;;;5077343;28;20020;-81
2021/04/08 11:51:45;;;;;;;5.95;3.70;;;;;;;;;;5073610;28;20036;-80
2021/04/08 11:54:12;;;;;;;6.13;3.88;;;;;;;;;;5071936;28;20027;-80
2021/04/08 11:56:38;;;;;;;10.55;4.35;;;;;;;;;;5073207;28;20033;-82
2021/04/08 11:59:13;;;;;;;7.50;3.67;;;;;;;;;;5073346;28;20020;-80
2021/04/08 12:01:43;;;;;;;6.55;4.20;;;;;;;;;;5071876;28;20390;-82
2021/04/08 12:04:19;;;;;;;11.03;4.53;;;;;;;;;;5070366;28;21330;-82
2021/04/08 12:06:57;;;;;;;12.63;4.13;;;;;;;;;;5071304;28;20021;-81
2021/04/08 12:09:35;;;;;;;12.90;5.18;;;;;;;;;;5071925;28;20021;-80
2021/04/08 12:12:00;;;;;;;6.68;3.63;;;;;;;;;;5070274;28;20064;-80
2021/04/08 12:14:26;;;;;;;8.45;4.10;;;;;;;;;;5071409;28;20447;-80
2021/04/08 12:17:05;;;;;;;8.77;4.38;;;;;;;;;;5075833;28;20028;-82
2021/04/08 12:19:31;;;;;;;9.75;3.80;;;;;;;;;;5073133;28;20039;-81
2021/04/08 12:22:02;;;;;;;8.85;4.07;;;;;;;;;;5073563;28;20020;-80
2021/04/08 12:24:28;;;;;;;7.50;3.80;;;;;;;;;;5073338;28;20016;-80
2021/04/08 12:26:54;;;;;;;6.85;4.07;;;;;;;;;;5069822;28;20034;-81
2021/04/08 12:29:21;;;;;;;8.63;3.75;;;;;;;;;;5072713;28;20052;-80
2021/04/08 12:31:50;;;;;;;9.55;4.22;;;;;;;;;;5070416;28;20024;-80
2021/04/08 12:34:16;;;;;;;9.57;4.53;;;;;;;;;;5070331;28;20028;-81
2021/04/08 12:36:44;;;;;;;7.95;3.88;;;;;;;;;;5082666;28;20032;-81
2021/04/08 12:39:10;;;;;;;10.32;3.72;;;;;;;;;;5079850;28;20030;-82
2021/04/08 12:41:36;;;;;;;7.90;4.38;;;;;;;;;;5081816;28;20024;-81
2021/04/08 12:44:02;;;;;;;9.98;4.25;;;;;;;;;;5062447;28;20040;-80
2021/04/08 12:46:31;;;;;;;6.47;3.60;;;;;;;;;;5078340;28;20046;-80
2021/04/08 12:48:57;;;;;;;8.45;3.70;;;;;;;;;;5080219;28;20063;-80
2021/04/08 12:51:23;;;;;;;7.38;3.65;;;;;;;;;;5082589;28;20040;-80
2021/04/08 12:53:48;;;;;;;10.98;4.35;;;;;;;;;;5081473;28;20028;-83
2021/04/08 12:56:14;;;;;;;9.63;3.38;;;;;;;;;;5080961;28;20031;-80
2021/04/08 12:58:40;;;;;;;12.05;3.72;;;;;;;;;;5078639;28;20031;-82
2021/04/08 13:01:06;;;;;;;7.28;3.42;;;;;;;;;;5076944;28;20025;-80
2021/04/08 13:03:32;;;;;;;10.98;4.05;;;;;;;;;;5080276;28;20051;-80
2021/04/08 13:05:58;;;;;;;6.47;3.35;;;;;;;;;;5077038;28;20092;-82
2021/04/08 13:08:25;;;;;;;8.70;4.07;;;;;;;;;;5080269;28;20051;-81
2021/04/08 13:10:51;;;;;;;6.97;3.78;;;;;;;;;;5065309;28;20033;-80
2021/04/08 13:13:17;;;;;;;8.88;3.60;;;;;;;;;;5080755;28;20031;-84
2021/04/08 13:15:48;;;;;;;7.85;3.45;;;;;;;;;;5079288;28;20047;-82
2021/04/08 13:18:39;;;;;;;8.95;3.60;;;;;;;;;;5081418;28;20063;-82
2021/04/08 13:21:05;;;;;;;7.07;3.50;;;;;;;;;;5084973;28;20043;-83
2021/04/08 13:23:32;;;;;;;10.90;4.80;;;;;;;;;;5082777;28;20051;-81
2021/04/08 13:25:58;;;;;;;10.23;4.35;;;;;;;;;;5075686;28;20040;-82
2021/04/08 13:28:25;;;;;;;9.80;3.90;;;;;;;;;;5079998;28;20026;-82
2021/04/08 13:30:50;;;;;;;10.80;4.10;;;;;;;;;;5081656;28;20016;-81
2021/04/08 13:33:16;;;;;;;11.68;4.55;;;;;;;;;;5075425;28;20074;-84
2021/04/08 13:35:42;;;;;;;7.43;3.58;;;;;;;;;;5080609;28;20061;-84
2021/04/08 13:38:08;;;;;;;8.98;3.70;;;;;;;;;;5081827;28;20028;-83
2021/04/08 13:40:33;;;;;;;8.20;3.88;;;;;;;;;;5081222;28;20020;-82
2021/04/08 13:42:59;;;;;;;10.07;5.05;;;;;;;;;;5077358;28;20086;-81
2021/04/08 13:45:25;;;;;;;9.80;3.90;;;;;;;;;;5083415;28;20048;-82
2021/04/08 13:47:51;;;;;;;7.00;3.63;;;;;;;;;;5075523;28;20025;-82
2021/04/08 13:50:17;;;;;;;13.73;5.07;;;;;;;;;;5075462;28;20029;-82
2021/04/08 13:52:43;;;;;;;6.40;3.42;;;;;;;;;;5084310;28;20088;-83
2021/04/08 13:55:10;;;;;;;8.88;4.65;;;;;;;;;;5083230;28;20082;-82
2021/04/08 13:57:36;;;;;;;9.02;4.07;;;;;;;;;;5082904;28;20069;-84
2021/04/08 14:00:03;;;;;;;8.13;5.43;;;;;;;;;;5076286;28;20666;-82
2021/04/08 14:02:29;;;;;;;10.88;4.97;;;;;;;;;;5082832;28;20025;-79
2021/04/08 14:04:54;;;;;;;11.70;5.95;;;;;;;;;;5076765;28;20025;-81
2021/04/08 14:07:20;;;;;;;11.27;7.05;;;;;;;;;;5076211;28;20104;-83
2021/04/08 14:12:06;;;;;;;34.78;18.23;;;;;;;;;;5080928;27;1920139;-82
2021/04/08 14:14:32;;;;;;;41.47;21.92;;;;;;;;;;5136175;28;20031;-82
2021/04/08 14:16:57;;;;;;;14.52;7.47;;;;;;;;;;5129073;28;20129;-83
2021/04/08 14:19:23;;;;;;;8.02;4.38;;;;;;;;;;5136058;28;20031;-83
2021/04/08 14:21:49;;;;;;;9.13;3.80;;;;;;;;;;5115429;28;20020;-85
2021/04/08 14:24:15;;;;;;;7.60;3.80;;;;;;;;;;5113266;28;20020;-83
2021/04/08 14:26:41;;;;;;;13.52;3.45;;;;;;;;;;5104745;28;20024;-82
2021/04/08 14:29:07;;;;;;;6.15;3.35;;;;;;;;;;5119184;28;20034;-82
2021/04/08 14:31:33;;;;;;;7.05;4.20;;;;;;;;;;5111216;28;20024;-80
2021/04/08 14:33:58;;;;;;;8.02;4.30;;;;;;;;;;5116600;28;20019;-82
2021/04/08 14:36:24;;;;;;;6.72;4.00;;;;;;;;;;5118583;28;20019;-84
2021/04/08 14:38:50;;;;;;;8.13;4.07;;;;;;;;;;5083732;28;20059;-83
2021/04/08 14:41:18;;;;;;;9.70;4.25;;;;;;;;;;5107670;28;20028;-83
2021/04/08 14:43:43;;;;;;;6.82;3.35;;;;;;;;;;5112029;28;20106;-82
2021/04/08 14:46:09;;;;;;;8.30;3.30;;;;;;;;;;5116732;28;20039;-82
2021/04/08 14:48:35;;;;;;;6.18;3.40;;;;;;;;;;5110646;28;20036;-83
2021/04/08 14:51:00;;;;;;;7.63;4.20;;;;;;;;;;5113042;28;20019;-82
2021/04/08 14:53:26;;;;;;;7.10;3.40;;;;;;;;;;5110895;28;20035;-84
2021/04/08 14:55:52;;;;;;;5.18;3.30;;;;;;;;;;5114270;28;20016;-83
2021/04/08 14:58:19;;;;;;;6.82;2.88;;;;;;;;;;5107898;28;20027;-83
2021/04/08 15:00:45;;;;;;;5.97;3.08;;;;;;;;;;5113012;28;20039;-83
2021/04/08 15:03:11;;;;;;;8.30;3.10;;;;;;;;;;5111618;28;20040;-83
2021/04/08 15:05:37;;;;;;;6.07;3.45;;;;;;;;;;5118959;27;20024;-81
2021/04/08 15:08:03;;;;;;;8.38;3.38;;;;;;;;;;5114053;28;20012;-81
2021/04/08 15:10:29;;;;;;;9.25;3.88;;;;;;;;;;5118346;28;20027;-82
2021/04/08 15:12:55;;;;;;;8.05;3.65;;;;;;;;;;5108300;28;20031;-83
2021/04/08 15:15:20;;;;;;;7.43;3.55;;;;;;;;;;5111068;28;20028;-82
2021/04/08 15:17:46;;;;;;;6.82;3.45;;;;;;;;;;5105542;28;20091;-81
2021/04/08 15:20:14;;;;;;;9.82;3.13;;;;;;;;;;5114312;28;20046;-81
2021/04/08 15:22:40;;;;;;;7.00;3.10;;;;;;;;;;5097083;28;20034;-79
2021/04/08 15:25:06;;;;;;;5.53;3.10;;;;;;;;;;5098353;28;20107;-81
2021/04/08 15:27:32;;;;;;;6.80;3.28;;;;;;;;;;5089203;28;20091;-80
2021/04/08 15:29:57;;;;;;;6.53;3.08;;;;;;;;;;5101788;28;20040;-81
2021/04/08 15:32:23;;;;;;;6.60;3.47;;;;;;;;;;5090805;28;20036;-81
2021/04/08 15:34:49;;;;;;;7.03;3.22;;;;;;;;;;5103499;28;20021;-81
2021/04/08 15:37:14;;;;;;;7.53;2.90;;;;;;;;;;5090518;28;20031;-81
2021/04/08 15:39:40;;;;;;;7.88;3.10;;;;;;;;;;5089555;28;20016;-79
2021/04/08 15:42:06;;;;;;;14.18;2.75;;;;;;;;;;5093959;28;20038;-80
2021/04/08 15:44:32;;;;;;;12.32;3.33;;;;;;;;;;5094082;28;20032;-82
2021/04/08 15:46:57;;;;;;;7.45;3.20;;;;;;;;;;5094928;28;20032;-81
2021/04/08 15:51:42;;;;;;;10.30;4.55;;;;;;;;;;5130089;27;20919;-81
2021/04/08 15:54:08;;;;;;;7.55;3.50;;;;;;;;;;5108368;28;20035;-80
2021/04/08 15:56:34;;;;;;;8.27;3.38;;;;;;;;;;5106379;28;20012;-81
2021/04/08 15:59:00;;;;;;;7.22;3.65;;;;;;;;;;5091918;28;20028;-80
2021/04/08 16:01:25;;;;;;;11.02;4.15;;;;;;;;;;5098336;28;20024;-80
2021/04/08 16:03:51;;;;;;;10.38;4.82;;;;;;;;;;5101637;28;20107;-80
2021/04/08 16:06:17;;;;;;;8.38;3.10;;;;;;;;;;5099753;28;20058;-80
2021/04/08 16:08:43;;;;;;;9.38;3.40;;;;;;;;;;5109113;28;20034;-80
2021/04/08 16:11:09;;;;;;;6.38;3.47;;;;;;;;;;5106278;28;20040;-80
2021/04/08 16:13:35;;;;;;;13.63;5.00;;;;;;;;;;5106264;28;20028;-80
2021/04/08 16:16:01;;;;;;;7.10;3.08;;;;;;;;;;5103369;28;20039;-80
2021/04/08 16:18:26;;;;;;;6.13;2.95;;;;;;;;;;5105546;28;20038;-79
2021/04/08 16:20:52;;;;;;;9.10;3.38;;;;;;;;;;5107297;28;20087;-79
2021/04/08 16:23:18;;;;;;;6.80;2.70;;;;;;;;;;5101119;28;20028;-80
2021/04/08 16:25:44;;;;;;;6.13;2.85;;;;;;;;;;5108245;28;20332;-80
2021/04/08 16:28:10;;;;;;;8.25;3.88;;;;;;;;;;5103149;28;20085;-78
2021/04/08 16:30:36;;;;;;;11.38;5.38;;;;;;;;;;5102339;28;20055;-79
2021/04/08 16:33:02;;;;;;;22.65;12.90;;;;;;;;;;5099087;28;20025;-79
2021/04/08 16:35:27;;;;;;;7.85;3.35;;;;;;;;;;5106179;28;20485;-79
2021/04/08 16:37:54;;;;;;;6.38;2.35;;;;;;;;;;5101862;28;20018;-79
2021/04/08 16:40:20;;;;;;;4.88;2.55;;;;;;;;;;5102275;28;20101;-78
2021/04/08 16:42:46;;;;;;;7.72;3.25;;;;;;;;;;5096743;28;20020;-80
2021/04/08 16:45:14;;;;;;;6.13;3.25;;;;;;;;;;5096466;28;20020;-79
2021/04/08 16:47:40;;;;;;;8.65;2.70;;;;;;;;;;5099200;28;20081;-79
2021/04/08 16:50:11;;;;;;;4.65;2.63;;;;;;;;;;5106221;28;20028;-78
2021/04/08 16:52:37;;;;;;;5.53;2.72;;;;;;;;;;5103775;28;20028;-78
2021/04/08 16:55:04;;;;;;;8.95;2.70;;;;;;;;;;5100470;28;20384;-80
2021/04/08 16:57:30;;;;;;;11.27;3.45;;;;;;;;;;5096394;28;21541;-81
2021/04/08 16:59:55;;;;;;;7.15;3.50;;;;;;;;;;5095606;28;20056;-80
2021/04/08 17:02:21;;;;;;;10.60;5.13;;;;;;;;;;5096113;28;20504;-79
2021/04/08 17:04:47;;;;;;;6.82;4.68;;;;;;;;;;5088907;28;20028;-79
2021/04/08 17:07:12;;;;;;;9.70;6.30;;;;;;;;;;5090800;28;20106;-80
2021/04/08 17:09:38;;;;;;;5.72;4.28;;;;;;;;;;5086959;28;20110;-79
2021/04/08 17:12:04;;;;;;;12.90;4.43;;;;;;;;;;5091479;28;20038;-81
2021/04/08 17:14:29;;;;;;;8.15;4.22;;;;;;;;;;5088603;28;20015;-80
2021/04/08 17:16:55;;;;;;;9.65;3.33;;;;;;;;;;5089250;28;20107;-77
2021/04/08 17:19:24;;;;;;;10.25;2.97;;;;;;;;;;5080445;28;20020;-78
2021/04/08 17:21:49;;;;;;;10.00;4.15;;;;;;;;;;5086393;28;20066;-78
2021/04/08 17:24:15;;;;;;;6.30;3.47;;;;;;;;;;5085462;28;20027;-78
2021/04/08 17:26:41;;;;;;;5.78;3.13;;;;;;;;;;5085223;28;20038;-77
2021/04/08 17:29:07;;;;;;;5.80;2.80;;;;;;;;;;5081750;28;20035;-77
2021/04/08 17:31:33;;;;;;;8.70;3.60;;;;;;;;;;5085055;28;20023;-77
2021/04/08 17:33:58;;;;;;;7.22;3.35;;;;;;;;;;5075984;28;20032;-77
2021/04/08 17:36:24;;;;;;;9.07;4.75;;;;;;;;;;5077606;28;20058;-78
2021/04/08 17:38:50;;;;;;;7.05;4.03;;;;;;;;;;5072617;28;20040;-77
2021/04/08 17:41:16;;;;;;;5.70;3.08;;;;;;;;;;5082332;28;20043;-76
2021/04/08 17:43:41;;;;;;;4.97;3.10;;;;;;;;;;5080725;28;20399;-77
2021/04/08 17:46:07;;;;;;;4.65;2.30;;;;;;;;;;5080463;28;20103;-77
2021/04/08 17:48:33;;;;;;;5.43;3.08;;;;;;;;;;5081166;28;20116;-76
2021/04/08 17:50:59;;;;;;;5.30;2.30;;;;;;;;;;5081467;28;20103;-76
2021/04/08 17:53:24;;;;;;;8.63;3.42;;;;;;;;;;5079304;28;20031;-76
2021/04/08 17:55:50;;;;;;;14.52;8.20;;;;;;;;;;5080332;28;20030;-77
2021/04/08 17:58:16;;;;;;;12.10;7.47;;;;;;;;;;5066429;28;20020;-77
2021/04/08 18:00:42;;;;;;;8.25;4.70;;;;;;;;;;5081246;28;20040;-77
2021/04/08 18:03:07;;;;;;;7.18;3.67;;;;;;;;;;5081611;28;20056;-77
2021/04/08 18:05:34;;;;;;;6.97;2.92;;;;;;;;;;5078613;28;20017;-77
2021/04/08 18:07:59;;;;;;;5.40;3.13;;;;;;;;;;5074291;28;20555;-77
2021/04/08 18:10:25;;;;;;;9.30;2.65;;;;;;;;;;5085126;28;20024;-77
2021/04/08 18:12:51;;;;;;;4.10;2.33;;;;;;;;;;5081720;28;20055;-78
2021/04/08 18:15:17;;;;;;;4.88;3.15;;;;;;;;;;5079122;28;20346;-77
2021/04/08 18:17:43;;;;;;;4.20;2.42;;;;;;;;;;5079830;28;20024;-79
2021/04/08 18:20:10;;;;;;;8.20;2.35;;;;;;;;;;5074581;28;20016;-77
2021/04/08 18:22:36;;;;;;;6.97;2.42;;;;;;;;;;5074865;28;20032;-79
2021/04/08 18:25:03;;;;;;;4.32;1.70;;;;;;;;;;5082347;28;20052;-79
2021/04/08 18:27:28;;;;;;;3.38;2.00;;;;;;;;;;5074872;28;20108;-78
2021/04/08 18:29:54;;;;;;;4.97;2.05;;;;;;;;;;5075729;28;20042;-79
2021/04/08 18:32:20;;;;;;;5.32;1.75;;;;;;;;;;5080889;28;20016;-80
2021/04/08 18:34:46;;;;;;;3.63;1.85;;;;;;;;;;5073223;28;20028;-79
2021/04/08 18:37:12;;;;;;;4.60;1.33;;;;;;;;;;5080791;28;20032;-79
2021/04/08 18:39:38;;;;;;;4.03;1.50;;;;;;;;;;5074658;28;20073;-79
2021/04/08 18:42:04;;;;;;;4.72;2.38;;;;;;;;;;5083427;28;20023;-79
2021/04/08 18:44:29;;;;;;;4.53;1.83;;;;;;;;;;5080355;28;20034;-79
2021/04/08 18:46:55;;;;;;;9.23;2.08;;;;;;;;;;5079735;28;20046;-79
2021/04/08 18:49:21;;;;;;;6.25;1.42;;;;;;;;;;5081971;28;20024;-78
2021/04/08 18:51:46;;;;;;;3.40;1.63;;;;;;;;;;5074171;28;20375;-79
2021/04/08 18:54:12;;;;;;;5.32;1.95;;;;;;;;;;5073226;28;20028;-79
2021/04/08 18:56:38;;;;;;;3.13;1.50;;;;;;;;;;5074798;28;20032;-77
2021/04/08 18:59:05;;;;;;;3.95;1.70;;;;;;;;;;5075532;28;20028;-78
2021/04/08 19:01:34;;;;;;;9.07;2.13;;;;;;;;;;5071171;28;20484;-77
2021/04/08 19:04:00;;;;;;;3.35;1.50;;;;;;;;;;5069250;28;20025;-79
2021/04/08 19:06:25;;;;;;;5.00;1.45;;;;;;;;;;5073648;28;20070;-77
2021/04/08 19:08:51;;;;;;;3.83;1.70;;;;;;;;;;5075591;28;20427;-78
2021/04/08 19:11:17;;;;;;;7.80;1.95;;;;;;;;;;5074143;28;20030;-79
2021/04/08 19:13:42;;;;;;;5.75;1.70;;;;;;;;;;5071139;28;20035;-79
2021/04/08 19:16:08;;;;;;;4.43;1.73;;;;;;;;;;5076334;28;20025;-79
2021/04/08 19:18:34;;;;;;;3.25;1.30;;;;;;;;;;5083799;28;20024;-78
2021/04/08 19:20:59;;;;;;;5.55;2.05;;;;;;;;;;5073774;28;20124;-79
2021/04/08 19:23:25;;;;;;;2.80;1.30;;;;;;;;;;5081275;28;20032;-78
2021/04/08 19:25:51;;;;;;;5.22;1.65;;;;;;;;;;5075035;28;20042;-78
2021/04/08 19:28:16;;;;;;;3.50;1.40;;;;;;;;;;5086125;28;20487;-77
2021/04/08 19:30:48;;;;;;;4.47;1.63;;;;;;;;;;5084246;28;20024;-78
2021/04/08 19:33:17;;;;;;;3.88;1.73;;;;;;;;;;5079506;28;20064;-78
2021/04/08 19:35:43;;;;;;;4.28;1.48;;;;;;;;;;5077018;28;20051;-77
2021/04/08 19:38:10;;;;;;;5.55;2.15;;;;;;;;;;5076928;28;20437;-78
2021/04/08 19:40:36;;;;;;;3.33;1.52;;;;;;;;;;5072799;28;20190;-78
2021/04/08 19:43:01;;;;;;;5.90;1.73;;;;;;;;;;5074003;28;20056;-79